createdAt,value
2017-05-08T00:00:08.701Z,0
2017-05-08T00:01:24.765Z,0
2017-05-08T00:02:38.951Z,0
2017-05-08T00:03:54.350Z,0
2017-05-08T00:05:09.931Z,0
2017-05-08T00:06:25.246Z,0
2017-05-08T00:07:40.644Z,0
2017-05-08T00:08:56.016Z,0
2017-05-08T00:10:11.374Z,0
2017-05-08T00:11:26.951Z,0
2017-05-08T00:12:41.026Z,0
2017-05-08T00:13:55.083Z,0
2017-05-08T00:15:10.569Z,0
2017-05-08T00:16:24.621Z,0
2017-05-08T00:17:40.202Z,0
2017-05-08T00:18:54.331Z,0
2017-05-08T00:20:09.389Z,0
2017-05-08T00:21:23.560Z,0
2017-05-08T00:22:39.219Z,0
2017-05-08T00:23:54.591Z,0
2017-05-08T00:25:08.794Z,0
2017-05-08T00:26:24.222Z,0
2017-05-08T00:27:37.331Z,0
2017-05-08T00:28:52.790Z,0
2017-05-08T00:30:06.879Z,0
2017-05-08T00:31:22.241Z,0
2017-05-08T00:32:38.060Z,0
2017-05-08T00:34:24.326Z,0
2017-05-08T00:35:39.659Z,0
2017-05-08T00:36:55.005Z,0
2017-05-08T00:38:08.061Z,0
2017-05-08T00:39:23.454Z,0
2017-05-08T00:40:38.819Z,0
2017-05-08T00:41:54.163Z,0
2017-05-08T00:43:08.448Z,0
2017-05-08T00:44:23.803Z,0
2017-05-08T00:45:37.901Z,0
2017-05-08T00:46:53.272Z,0
2017-05-08T00:48:07.603Z,0
2017-05-08T00:49:22.983Z,0
2017-05-08T00:50:38.403Z,0
2017-05-08T00:51:53.759Z,0
2017-05-08T00:53:09.381Z,0
2017-05-08T00:54:23.435Z,0
2017-05-08T00:55:38.793Z,0
2017-05-08T00:56:54.163Z,0
2017-05-08T00:58:09.754Z,0
2017-05-08T00:59:25.082Z,0
2017-05-08T01:00:38.980Z,0
2017-05-08T01:01:54.320Z,0
2017-05-08T01:03:09.938Z,0
2017-05-08T01:04:24.073Z,0
2017-05-08T01:05:39.038Z,0
2017-05-08T01:06:54.361Z,0
2017-05-08T01:08:09.971Z,0
2017-05-08T01:09:24.022Z,0
2017-05-08T01:10:39.388Z,0
2017-05-08T01:11:54.758Z,0
2017-05-08T01:13:10.381Z,0
2017-05-08T01:14:25.707Z,0
2017-05-08T01:15:41.165Z,0
2017-05-08T01:16:56.499Z,0
2017-05-08T01:18:12.085Z,0
2017-05-08T01:19:27.446Z,0
2017-05-08T01:20:41.534Z,0
2017-05-08T01:21:56.864Z,0
2017-05-08T01:23:11.178Z,0
2017-05-08T01:24:25.113Z,0
2017-05-08T01:25:40.497Z,0
2017-05-08T01:26:54.597Z,0
2017-05-08T01:28:09.801Z,0
2017-05-08T01:29:25.417Z,0
2017-05-08T01:30:38.030Z,0
2017-05-08T01:31:52.118Z,0
2017-05-08T01:33:07.456Z,0
2017-05-08T01:34:23.262Z,0
2017-05-08T01:35:37.390Z,0
2017-05-08T01:36:52.435Z,0
2017-05-08T01:38:07.971Z,0
2017-05-08T01:39:22.301Z,0
2017-05-08T01:40:37.684Z,0
2017-05-08T01:41:53.008Z,0
2017-05-08T01:43:08.333Z,0
2017-05-08T01:44:24.026Z,0
2017-05-08T01:45:39.359Z,0
2017-05-08T01:46:54.918Z,0
2017-05-08T01:48:10.248Z,0
2017-05-08T01:49:25.941Z,0
2017-05-08T01:50:41.277Z,0
2017-05-08T01:51:56.606Z,0
2017-05-08T01:53:11.938Z,0
2017-05-08T01:54:24.589Z,0
2017-05-08T01:55:39.941Z,0
2017-05-08T01:56:54.029Z,0
2017-05-08T01:58:08.083Z,0
2017-05-08T01:59:22.467Z,0
2017-05-08T02:00:35.214Z,0
2017-05-08T02:01:49.270Z,0
2017-05-08T02:03:04.872Z,0
2017-05-08T02:04:20.774Z,0
2017-05-08T02:05:35.058Z,0
2017-05-08T02:06:50.375Z,0
2017-05-08T02:08:05.737Z,0
2017-05-08T02:09:19.446Z,0
2017-05-08T02:10:35.067Z,0
2017-05-08T02:11:50.384Z,0
2017-05-08T02:13:04.374Z,0
2017-05-08T02:14:19.730Z,0
2017-05-08T02:15:35.342Z,0
2017-05-08T02:16:49.099Z,0
2017-05-08T02:18:02.864Z,0
2017-05-08T02:19:15.514Z,0
2017-05-08T02:20:29.603Z,0
2017-05-08T02:21:43.387Z,0
2017-05-08T02:22:57.118Z,0
2017-05-08T02:24:09.558Z,0
2017-05-08T02:25:23.530Z,0
2017-05-08T02:26:37.347Z,0
2017-05-08T02:27:51.081Z,0
2017-05-08T02:29:04.806Z,0
2017-05-08T02:30:18.529Z,0
2017-05-08T02:31:32.512Z,0
2017-05-08T02:32:44.981Z,0
2017-05-08T02:33:58.760Z,0
2017-05-08T02:35:12.496Z,0
2017-05-08T02:36:26.476Z,0
2017-05-08T02:37:37.636Z,0
2017-05-08T02:38:50.085Z,0
2017-05-08T02:40:03.983Z,0
2017-05-08T02:41:16.674Z,0
2017-05-08T02:42:29.436Z,0
2017-05-08T02:43:43.178Z,0
2017-05-08T02:44:56.939Z,0
2017-05-08T02:46:09.374Z,0
2017-05-08T02:47:22.065Z,0
2017-05-08T02:48:36.047Z,0
2017-05-08T02:49:49.832Z,0
2017-05-08T02:51:02.277Z,0
2017-05-08T02:52:16.002Z,0
2017-05-08T02:53:28.699Z,0
2017-05-08T02:54:41.132Z,0
2017-05-08T02:55:54.871Z,4
2017-05-08T02:57:07.341Z,4
2017-05-08T02:58:21.307Z,4
2017-05-08T02:59:35.324Z,0
2017-05-08T03:00:49.050Z,4
2017-05-08T03:02:00.308Z,4
2017-05-08T03:03:12.978Z,4
2017-05-08T03:04:27.007Z,4
2017-05-08T03:05:40.771Z,4
2017-05-08T03:06:54.514Z,4
2017-05-08T03:08:08.239Z,4
2017-05-08T03:09:22.513Z,8
2017-05-08T03:10:36.272Z,8
2017-05-08T03:11:50.003Z,8
2017-05-08T03:13:03.791Z,12
2017-05-08T03:14:16.227Z,16
2017-05-08T03:15:30.282Z,24
2017-05-08T03:16:42.719Z,32
2017-05-08T03:17:56.458Z,36
2017-05-08T03:19:10.203Z,44
2017-05-08T03:20:24.229Z,36
2017-05-08T03:21:36.687Z,40
2017-05-08T03:22:50.481Z,44
2017-05-08T03:24:01.638Z,48
2017-05-08T03:25:15.363Z,56
2017-05-08T03:26:29.364Z,60
2017-05-08T03:27:43.105Z,64
2017-05-08T03:28:55.554Z,72
2017-05-08T03:30:09.381Z,80
2017-05-08T03:31:23.360Z,96
2017-05-08T03:32:37.083Z,108
2017-05-08T03:33:50.815Z,112
2017-05-08T03:35:04.545Z,124
2017-05-08T03:36:16.980Z,136
2017-05-08T03:37:29.713Z,144
2017-05-08T03:38:42.155Z,160
2017-05-08T03:39:54.833Z,164
2017-05-08T03:41:08.679Z,188
2017-05-08T03:42:22.457Z,204
2017-05-08T03:43:36.460Z,212
2017-05-08T03:44:48.947Z,220
2017-05-08T03:46:02.678Z,216
2017-05-08T03:47:16.428Z,224
2017-05-08T03:48:30.423Z,236
2017-05-08T03:49:44.146Z,260
2017-05-08T03:50:57.922Z,264
2017-05-08T03:52:11.648Z,272
2017-05-08T03:53:24.380Z,284
2017-05-08T03:54:38.197Z,296
2017-05-08T03:55:51.949Z,312
2017-05-08T03:57:05.663Z,328
2017-05-08T03:58:18.345Z,328
2017-05-08T03:59:32.335Z,332
2017-05-08T04:00:46.091Z,344
2017-05-08T04:01:58.525Z,352
2017-05-08T04:03:11.038Z,380
2017-05-08T04:04:24.784Z,408
2017-05-08T04:05:38.823Z,436
2017-05-08T04:06:52.657Z,472
2017-05-08T04:08:06.380Z,512
2017-05-08T04:09:20.111Z,580
2017-05-08T04:10:33.043Z,608
2017-05-08T04:11:46.783Z,700
2017-05-08T04:13:00.524Z,772
2017-05-08T04:14:12.960Z,804
2017-05-08T04:15:27.004Z,864
2017-05-08T04:16:36.874Z,892
2017-05-08T04:17:50.600Z,864
2017-05-08T04:19:03.089Z,904
2017-05-08T04:20:16.827Z,876
2017-05-08T04:21:29.520Z,856
2017-05-08T04:22:42.054Z,892
2017-05-08T04:23:55.790Z,1040
2017-05-08T04:25:09.626Z,1112
2017-05-08T04:26:23.793Z,1232
2017-05-08T04:27:37.763Z,1312
2017-05-08T04:28:51.501Z,1340
2017-05-08T04:30:05.306Z,1668
2017-05-08T04:31:19.046Z,1880
2017-05-08T04:32:33.039Z,1940
2017-05-08T04:33:46.781Z,1808
2017-05-08T04:34:59.257Z,1812
2017-05-08T04:36:13.014Z,1980
2017-05-08T04:37:25.458Z,2116
2017-05-08T04:38:38.180Z,2176
2017-05-08T04:39:49.372Z,2360
2017-05-08T04:41:01.804Z,2388
2017-05-08T04:42:14.239Z,2140
2017-05-08T04:43:28.273Z,2152
2017-05-08T04:44:42.036Z,2136
2017-05-08T04:45:54.572Z,1828
2017-05-08T04:47:08.314Z,1920
2017-05-08T04:48:22.330Z,1920
2017-05-08T04:49:36.101Z,1956
2017-05-08T04:50:49.871Z,2452
2017-05-08T04:52:02.310Z,2888
2017-05-08T04:53:16.203Z,3008
2017-05-08T04:54:30.187Z,3016
2017-05-08T04:55:43.933Z,2896
2017-05-08T04:56:57.683Z,3244
2017-05-08T04:58:11.413Z,3024
2017-05-08T04:59:25.399Z,2864
2017-05-08T05:00:37.881Z,2948
2017-05-08T05:01:50.320Z,3304
2017-05-08T05:03:04.113Z,2816
2017-05-08T05:04:17.861Z,2824
2017-05-08T05:05:29.281Z,2516
2017-05-08T05:06:43.015Z,2088
2017-05-08T05:07:56.906Z,1616
2017-05-08T05:09:10.635Z,1544
2017-05-08T05:10:23.108Z,1568
2017-05-08T05:11:35.965Z,1536
2017-05-08T05:12:49.734Z,1540
2017-05-08T05:14:02.285Z,1552
2017-05-08T05:15:16.031Z,1656
2017-05-08T05:16:30.016Z,1632
2017-05-08T05:17:42.688Z,1608
2017-05-08T05:18:56.405Z,1564
2017-05-08T05:20:10.605Z,1800
2017-05-08T05:21:24.652Z,1600
2017-05-08T05:22:37.237Z,1504
2017-05-08T05:23:47.115Z,1428
2017-05-08T05:25:00.951Z,1460
2017-05-08T05:26:12.105Z,1616
2017-05-08T05:27:26.107Z,1500
2017-05-08T05:28:39.858Z,1492
2017-05-08T05:29:52.535Z,1404
2017-05-08T05:31:04.968Z,1472
2017-05-08T05:32:18.824Z,1436
2017-05-08T05:33:32.819Z,1456
2017-05-08T05:34:46.548Z,1396
2017-05-08T05:36:00.334Z,1372
2017-05-08T05:37:14.064Z,1564
2017-05-08T05:38:28.042Z,1752
2017-05-08T05:39:39.196Z,1976
2017-05-08T05:40:50.352Z,2384
2017-05-08T05:42:04.121Z,2404
2017-05-08T05:43:17.848Z,2316
2017-05-08T05:44:30.556Z,2444
2017-05-08T05:45:43.000Z,2528
2017-05-08T05:46:56.736Z,2560
2017-05-08T05:48:10.497Z,2780
2017-05-08T05:49:24.476Z,2716
2017-05-08T05:50:37.327Z,2844
2017-05-08T05:51:51.106Z,2944
2017-05-08T05:53:02.282Z,3124
2017-05-08T05:54:16.005Z,3156
2017-05-08T05:55:59.644Z,2972
2017-05-08T05:57:12.104Z,2900
2017-05-08T05:58:24.592Z,2888
2017-05-08T05:59:37.060Z,2920
2017-05-08T06:00:50.091Z,2784
2017-05-08T06:02:03.054Z,2572
2017-05-08T06:03:16.891Z,2624
2017-05-08T06:04:29.371Z,2924
2017-05-08T06:05:43.452Z,3008
2017-05-08T06:06:57.264Z,3040
2017-05-08T06:08:11.001Z,3280
2017-05-08T06:09:24.739Z,3536
2017-05-08T06:10:37.218Z,3720
2017-05-08T06:11:51.196Z,3600
2017-05-08T06:13:04.934Z,3308
2017-05-08T06:14:17.438Z,3256
2017-05-08T06:15:31.181Z,3084
2017-05-08T06:16:43.692Z,3040
2017-05-08T06:17:56.543Z,3208
2017-05-08T06:19:08.988Z,3148
2017-05-08T06:20:20.161Z,3248
2017-05-08T06:21:33.902Z,3184
2017-05-08T06:22:46.603Z,2964
2017-05-08T06:24:00.364Z,2944
2017-05-08T06:25:14.118Z,2952
2017-05-08T06:26:28.121Z,3248
2017-05-08T06:27:42.149Z,3472
2017-05-08T06:28:55.900Z,4044
2017-05-08T06:30:09.638Z,4112
2017-05-08T06:31:23.385Z,4376
2017-05-08T06:32:37.350Z,4156
2017-05-08T06:33:51.353Z,3852
2017-05-08T06:35:05.094Z,3472
2017-05-08T06:36:18.844Z,2876
2017-05-08T06:37:31.291Z,2800
2017-05-08T06:38:45.313Z,3024
2017-05-08T06:39:59.103Z,3276
2017-05-08T06:41:12.847Z,3488
2017-05-08T06:42:25.306Z,3312
2017-05-08T06:43:39.047Z,3564
2017-05-08T06:44:51.734Z,3212
2017-05-08T06:46:04.193Z,2920
2017-05-08T06:47:17.955Z,3208
2017-05-08T06:48:30.390Z,3100
2017-05-08T06:49:42.827Z,3248
2017-05-08T06:50:55.521Z,3296
2017-05-08T06:52:07.998Z,3672
2017-05-08T06:53:21.726Z,3420
2017-05-08T06:55:06.589Z,3448
2017-05-08T06:56:20.316Z,3524
2017-05-08T06:57:34.043Z,2836
2017-05-08T06:58:47.847Z,2640
2017-05-08T07:00:01.580Z,2804
2017-05-08T07:01:15.667Z,3468
2017-05-08T07:02:28.387Z,3568
2017-05-08T07:03:41.057Z,3576
2017-05-08T07:04:54.800Z,3604
2017-05-08T07:06:08.780Z,3676
2017-05-08T07:07:22.557Z,4296
2017-05-08T07:08:36.295Z,4320
2017-05-08T07:09:50.296Z,4092
2017-05-08T07:11:03.033Z,3592
2017-05-08T07:12:16.820Z,3756
2017-05-08T07:13:29.262Z,4172
2017-05-08T07:14:41.807Z,4916
2017-05-08T07:15:55.544Z,4568
2017-05-08T07:17:09.577Z,3956
2017-05-08T07:18:22.022Z,4244
2017-05-08T07:19:33.174Z,4772
2017-05-08T07:20:47.131Z,5340
2017-05-08T07:21:59.643Z,5984
2017-05-08T07:23:13.773Z,6336
2017-05-08T07:24:26.210Z,4940
2017-05-08T07:25:40.095Z,4192
2017-05-08T07:26:53.829Z,3648
2017-05-08T07:28:07.885Z,3452
2017-05-08T07:29:20.334Z,4296
2017-05-08T07:30:34.069Z,4596
2017-05-08T07:31:47.868Z,5080
2017-05-08T07:33:01.941Z,4344
2017-05-08T07:34:15.658Z,3828
2017-05-08T07:35:29.419Z,4608
2017-05-08T07:36:43.157Z,5268
2017-05-08T07:37:57.130Z,5216
2017-05-08T07:39:11.185Z,5160
2017-05-08T07:40:24.917Z,5740
2017-05-08T07:41:38.699Z,5384
2017-05-08T07:42:52.475Z,5884
2017-05-08T07:44:06.610Z,5144
2017-05-08T07:45:19.046Z,5240
2017-05-08T07:46:31.504Z,4640
2017-05-08T07:47:43.944Z,5148
2017-05-08T07:48:57.713Z,5352
2017-05-08T07:50:11.720Z,5116
2017-05-08T07:51:25.474Z,5756
2017-05-08T07:52:39.188Z,6244
2017-05-08T07:53:52.915Z,6064
2017-05-08T07:55:06.925Z,5924
2017-05-08T07:56:20.706Z,6296
2017-05-08T07:57:34.520Z,6756
2017-05-08T07:58:48.295Z,6236
2017-05-08T08:00:02.059Z,4956
2017-05-08T08:01:14.807Z,4968
2017-05-08T08:02:28.754Z,5128
2017-05-08T08:03:42.510Z,5584
2017-05-08T08:04:56.258Z,6008
2017-05-08T08:06:08.699Z,5476
2017-05-08T08:07:21.397Z,4852
2017-05-08T08:08:35.134Z,4628
2017-05-08T08:09:47.583Z,4468
2017-05-08T08:11:01.311Z,5012
2017-05-08T08:12:14.009Z,5456
2017-05-08T08:13:26.450Z,4948
2017-05-08T08:14:38.918Z,4508
2017-05-08T08:15:51.376Z,4228
2017-05-08T08:17:04.036Z,3936
2017-05-08T08:18:16.731Z,3536
2017-05-08T08:19:30.467Z,3360
2017-05-08T08:20:44.201Z,3808
2017-05-08T08:21:57.979Z,4368
2017-05-08T08:23:11.959Z,4628
2017-05-08T08:24:24.435Z,3972
2017-05-08T08:25:36.889Z,3756
2017-05-08T08:26:50.876Z,3800
2017-05-08T08:28:02.056Z,4420
2017-05-08T08:29:16.048Z,5300
2017-05-08T08:30:28.547Z,5776
2017-05-08T08:31:42.279Z,6540
2017-05-08T08:32:54.751Z,6764
2017-05-08T08:34:07.220Z,7296
2017-05-08T08:35:18.777Z,9020
2017-05-08T08:36:32.530Z,9100
2017-05-08T08:37:45.049Z,9788
2017-05-08T08:38:58.776Z,9380
2017-05-08T08:40:11.477Z,8144
2017-05-08T08:41:25.207Z,6896
2017-05-08T08:42:38.937Z,7148
2017-05-08T08:43:51.418Z,6900
2017-05-08T08:45:05.158Z,8176
2017-05-08T08:46:19.237Z,8908
2017-05-08T08:47:32.959Z,7772
2017-05-08T08:48:46.741Z,7272
2017-05-08T08:50:00.477Z,7280
2017-05-08T08:51:13.166Z,7544
2017-05-08T08:52:25.610Z,6780
2017-05-08T08:53:39.353Z,6216
2017-05-08T08:54:53.088Z,6000
2017-05-08T08:56:06.900Z,5720
2017-05-08T08:57:20.886Z,6040
2017-05-08T08:58:34.630Z,6328
2017-05-08T08:59:48.361Z,6780
2017-05-08T09:01:00.834Z,7124
2017-05-08T09:02:14.888Z,7752
2017-05-08T09:03:28.609Z,8632
2017-05-08T09:04:41.106Z,7240
2017-05-08T09:05:54.853Z,6520
2017-05-08T09:07:07.296Z,6860
2017-05-08T09:08:18.714Z,6864
2017-05-08T09:09:32.471Z,6936
2017-05-08T09:10:44.925Z,6620
2017-05-08T09:11:58.692Z,6176
2017-05-08T09:13:11.402Z,5956
2017-05-08T09:14:25.132Z,5832
2017-05-08T09:15:38.868Z,5696
2017-05-08T09:16:52.645Z,5720
2017-05-08T09:18:06.877Z,5704
2017-05-08T09:19:20.614Z,6204
2017-05-08T09:20:33.114Z,8148
2017-05-08T09:21:45.606Z,8344
2017-05-08T09:22:59.361Z,7260
2017-05-08T09:24:12.078Z,6476
2017-05-08T09:25:25.802Z,6140
2017-05-08T09:26:39.530Z,6320
2017-05-08T09:27:53.268Z,6200
2017-05-08T09:29:07.413Z,6076
2017-05-08T09:30:21.399Z,6212
2017-05-08T09:31:33.864Z,6896
2017-05-08T09:32:47.587Z,6580
2017-05-08T09:34:01.326Z,5764
2017-05-08T09:35:15.316Z,6468
2017-05-08T09:36:29.080Z,6364
2017-05-08T09:37:42.844Z,5820
2017-05-08T09:38:56.639Z,5900
2017-05-08T09:40:10.676Z,6560
2017-05-08T09:41:24.414Z,6396
2017-05-08T09:42:38.146Z,6160
2017-05-08T09:43:49.320Z,5724
2017-05-08T09:45:03.057Z,5420
2017-05-08T09:46:14.490Z,5564
2017-05-08T09:47:28.302Z,6164
2017-05-08T09:48:42.041Z,5948
2017-05-08T09:49:54.622Z,5628
2017-05-08T09:51:08.597Z,5116
2017-05-08T09:52:21.032Z,4452
2017-05-08T09:53:34.830Z,5444
2017-05-08T09:54:48.560Z,7568
2017-05-08T09:56:01.240Z,9360
2017-05-08T09:57:15.272Z,11504
2017-05-08T09:58:27.735Z,12356
2017-05-08T09:59:41.594Z,13860
2017-05-08T10:00:55.322Z,14524
2017-05-08T10:02:09.326Z,14536
2017-05-08T10:03:21.787Z,15288
2017-05-08T10:04:35.513Z,14592
2017-05-08T10:05:49.367Z,13588
2017-05-08T10:07:03.150Z,11416
2017-05-08T10:08:17.129Z,10516
2017-05-08T10:09:30.849Z,10136
2017-05-08T10:10:44.597Z,8996
2017-05-08T10:11:58.557Z,7932
2017-05-08T10:13:11.419Z,8068
2017-05-08T10:14:25.298Z,7788
2017-05-08T10:15:39.038Z,7904
2017-05-08T10:16:52.768Z,7788
2017-05-08T10:18:05.220Z,6884
2017-05-08T10:19:19.433Z,6424
2017-05-08T10:20:33.178Z,7476
2017-05-08T10:21:47.066Z,8524
2017-05-08T10:22:59.527Z,9660
2017-05-08T10:24:13.602Z,10236
2017-05-08T10:25:27.572Z,10544
2017-05-08T10:26:41.321Z,10480
2017-05-08T10:27:55.037Z,17440
2017-05-08T10:29:08.876Z,24256
2017-05-08T10:30:24.492Z,24064
2017-05-08T10:31:38.539Z,23360
2017-05-08T10:32:52.602Z,21152
2017-05-08T10:34:05.374Z,19584
2017-05-08T10:35:20.961Z,18880
2017-05-08T10:36:34.648Z,19872
2017-05-08T10:37:50.289Z,23456
2017-05-08T10:39:04.507Z,21312
2017-05-08T10:40:20.110Z,19648
2017-05-08T10:41:35.692Z,19808
2017-05-08T10:42:48.362Z,20288
2017-05-08T10:44:03.745Z,19584
2017-05-08T10:45:19.089Z,19008
2017-05-08T10:46:34.810Z,19872
2017-05-08T10:47:50.145Z,21184
2017-05-08T10:49:02.821Z,18944
2017-05-08T10:50:15.596Z,20480
2017-05-08T10:51:29.899Z,18848
2017-05-08T10:52:45.237Z,17664
2017-05-08T10:54:00.577Z,16288
2017-05-08T10:55:15.922Z,15568
2017-05-08T10:56:31.609Z,14588
2017-05-08T10:57:47.334Z,13624
2017-05-08T10:59:02.664Z,13584
2017-05-08T11:00:17.997Z,12792
2017-05-08T11:01:32.268Z,14208
2017-05-08T11:02:46.259Z,14280
2017-05-08T11:04:00.176Z,17504
2017-05-08T11:05:15.533Z,15036
2017-05-08T11:06:31.131Z,16256
2017-05-08T11:07:46.474Z,14324
2017-05-08T11:09:01.824Z,15532
2017-05-08T11:10:17.328Z,14496
2017-05-08T11:11:32.923Z,14412
2017-05-08T11:12:48.246Z,15272
2017-05-08T11:14:02.360Z,13220
2017-05-08T11:15:17.881Z,13680
2017-05-08T11:16:32.071Z,15408
2017-05-08T11:17:47.400Z,15704
2017-05-08T11:19:01.606Z,17536
2017-05-08T11:20:16.977Z,16192
2017-05-08T11:21:31.415Z,20832
2017-05-08T11:22:46.783Z,20224
2017-05-08T11:24:02.129Z,17408
2017-05-08T11:25:17.614Z,14652
2017-05-08T11:26:31.938Z,12812
2017-05-08T11:27:47.344Z,10532
2017-05-08T11:29:01.408Z,10384
2017-05-08T11:30:14.396Z,11224
2017-05-08T11:31:28.493Z,11248
2017-05-08T11:32:42.933Z,12944
2017-05-08T11:33:58.265Z,15732
2017-05-08T11:35:10.911Z,15208
2017-05-08T11:36:26.264Z,14196
2017-05-08T11:37:40.563Z,13956
2017-05-08T11:38:54.882Z,12728
2017-05-08T11:40:10.209Z,10920
2017-05-08T11:41:24.489Z,10612
2017-05-08T11:42:40.097Z,11832
2017-05-08T11:43:53.096Z,12132
2017-05-08T11:45:07.005Z,11440
2017-05-08T11:46:22.045Z,12096
2017-05-08T11:47:37.705Z,12508
2017-05-08T11:48:51.758Z,13476
2017-05-08T11:50:05.662Z,12792
2017-05-08T11:51:21.045Z,11784
2017-05-08T11:52:36.389Z,11008
2017-05-08T11:53:50.722Z,10220
2017-05-08T11:55:06.087Z,12088
2017-05-08T11:56:20.152Z,12328
2017-05-08T11:57:35.539Z,12260
2017-05-08T11:58:51.483Z,13096
2017-05-08T12:00:06.820Z,11744
2017-05-08T12:01:20.879Z,11400
2017-05-08T12:02:34.983Z,11968
2017-05-08T12:03:50.580Z,12428
2017-05-08T12:05:06.115Z,10804
2017-05-08T12:06:20.179Z,12240
2017-05-08T12:07:34.226Z,8556
2017-05-08T12:08:49.831Z,8036
2017-05-08T12:10:05.365Z,8432
2017-05-08T12:11:20.714Z,11452
2017-05-08T12:12:36.204Z,13552
2017-05-08T12:13:51.844Z,14720
2017-05-08T12:15:05.893Z,15916
2017-05-08T12:16:21.233Z,15104
2017-05-08T12:17:36.581Z,12412
2017-05-08T12:18:52.263Z,12912
2017-05-08T12:20:07.596Z,8032
2017-05-08T12:21:23.072Z,10096
2017-05-08T12:22:37.000Z,13152
2017-05-08T12:23:52.605Z,10480
2017-05-08T12:25:02.886Z,9776
2017-05-08T12:26:18.245Z,8552
2017-05-08T12:27:31.990Z,8664
2017-05-08T12:28:46.150Z,7120
2017-05-08T12:30:00.438Z,7344
2017-05-08T12:31:14.488Z,6872
2017-05-08T12:32:29.873Z,8616
2017-05-08T12:33:42.631Z,8912
2017-05-08T12:34:58.337Z,8700
2017-05-08T12:36:13.944Z,8608
2017-05-08T12:37:29.298Z,8604
2017-05-08T12:38:44.696Z,8132
2017-05-08T12:40:00.316Z,7984
2017-05-08T12:41:15.930Z,7680
2017-05-08T12:42:31.335Z,7900
2017-05-08T12:43:46.754Z,8152
2017-05-08T12:45:02.365Z,7616
2017-05-08T12:46:16.452Z,6540
2017-05-08T12:47:31.784Z,6492
2017-05-08T12:48:47.136Z,6660
2017-05-08T12:50:02.799Z,7140
2017-05-08T12:51:16.978Z,6564
2017-05-08T12:52:32.310Z,6668
2017-05-08T12:54:18.392Z,8684
2017-05-08T12:55:34.071Z,7020
2017-05-08T12:56:49.586Z,5248
2017-05-08T12:58:05.625Z,5736
2017-05-08T12:59:20.966Z,5116
2017-05-08T13:00:36.558Z,5132
2017-05-08T13:01:52.168Z,5592
2017-05-08T13:03:07.944Z,4488
2017-05-08T13:04:23.299Z,4184
2017-05-08T13:05:37.602Z,4108
2017-05-08T13:06:51.659Z,4168
2017-05-08T13:08:05.692Z,3968
2017-05-08T13:09:19.930Z,4280
2017-05-08T13:10:35.660Z,4772
2017-05-08T13:11:50.992Z,4652
2017-05-08T13:13:05.090Z,4468
2017-05-08T13:14:20.447Z,6060
2017-05-08T13:15:36.060Z,6224
2017-05-08T13:16:50.205Z,6680
2017-05-08T13:18:05.557Z,7640
2017-05-08T13:19:19.640Z,6944
2017-05-08T13:20:35.366Z,7268
2017-05-08T13:21:50.325Z,5740
2017-05-08T13:23:05.689Z,5476
2017-05-08T13:24:19.664Z,4568
2017-05-08T13:25:34.224Z,3900
2017-05-08T13:26:49.659Z,3748
2017-05-08T13:28:05.029Z,4780
2017-05-08T13:29:20.392Z,5440
2017-05-08T13:30:36.031Z,3956
2017-05-08T13:31:51.396Z,3632
2017-05-08T13:33:06.798Z,4348
2017-05-08T13:34:22.158Z,4464
2017-05-08T13:35:37.895Z,4976
2017-05-08T13:36:53.400Z,5076
2017-05-08T13:38:08.743Z,4796
2017-05-08T13:39:24.078Z,4316
2017-05-08T13:40:39.860Z,3304
2017-05-08T13:41:53.808Z,2812
2017-05-08T13:43:09.153Z,4096
2017-05-08T13:44:24.520Z,2864
2017-05-08T13:45:40.162Z,4892
2017-05-08T13:46:55.138Z,4868
2017-05-08T13:48:09.186Z,4888
2017-05-08T13:49:23.118Z,4008
2017-05-08T13:50:38.443Z,4088
2017-05-08T13:51:52.793Z,4676
2017-05-08T13:53:08.145Z,4492
2017-05-08T13:54:21.090Z,3856
2017-05-08T13:55:33.776Z,4528
2017-05-08T13:56:49.396Z,4296
2017-05-08T13:58:03.454Z,3740
2017-05-08T13:59:18.789Z,3740
2017-05-08T14:00:34.140Z,3364
2017-05-08T14:01:48.460Z,3284
2017-05-08T14:03:03.814Z,2600
2017-05-08T14:04:19.146Z,2380
2017-05-08T14:05:33.222Z,2112
2017-05-08T14:06:47.603Z,3592
2017-05-08T14:08:02.975Z,3568
2017-05-08T14:09:18.343Z,3948
2017-05-08T14:10:32.294Z,3896
2017-05-08T14:11:47.888Z,3592
2017-05-08T14:13:03.241Z,3944
2017-05-08T14:14:17.289Z,3784
2017-05-08T14:15:32.687Z,3672
2017-05-08T14:16:48.353Z,3420
2017-05-08T14:18:02.418Z,3224
2017-05-08T14:19:13.937Z,3040
2017-05-08T14:20:28.010Z,3308
2017-05-08T14:21:43.609Z,3588
2017-05-08T14:22:57.667Z,3772
2017-05-08T14:24:13.002Z,3644
2017-05-08T14:25:27.085Z,3992
2017-05-08T14:26:42.436Z,4132
2017-05-08T14:27:56.816Z,4424
2017-05-08T14:29:10.866Z,4020
2017-05-08T14:30:26.385Z,2780
2017-05-08T14:31:39.148Z,2436
2017-05-08T14:32:54.747Z,2012
2017-05-08T14:34:10.079Z,1912
2017-05-08T14:35:22.925Z,2400
2017-05-08T14:36:38.295Z,3332
2017-05-08T14:37:53.985Z,3140
2017-05-08T14:39:09.330Z,3344
2017-05-08T14:40:24.745Z,3564
2017-05-08T14:41:40.299Z,3956
2017-05-08T14:42:55.968Z,3884
2017-05-08T14:44:11.328Z,4792
2017-05-08T14:45:26.722Z,4616
2017-05-08T14:46:42.087Z,4092
2017-05-08T14:47:56.403Z,3764
2017-05-08T14:49:11.809Z,4072
2017-05-08T14:50:27.178Z,3544
2017-05-08T14:51:42.541Z,3260
2017-05-08T14:52:58.124Z,3476
2017-05-08T14:54:13.474Z,4216
2017-05-08T14:55:28.819Z,5324
2017-05-08T14:56:44.170Z,6436
2017-05-08T14:57:59.779Z,6852
2017-05-08T14:59:12.731Z,7028
2017-05-08T15:00:26.790Z,7012
2017-05-08T15:01:40.859Z,7048
2017-05-08T15:02:55.185Z,7272
2017-05-08T15:04:10.249Z,7652
2017-05-08T15:05:24.343Z,8032
2017-05-08T15:06:38.413Z,8284
2017-05-08T15:07:53.771Z,8420
2017-05-08T15:09:09.440Z,8500
2017-05-08T15:10:24.791Z,8580
2017-05-08T15:11:40.180Z,8776
2017-05-08T15:12:55.606Z,9080
2017-05-08T15:14:08.647Z,9284
2017-05-08T15:15:24.026Z,9200
2017-05-08T15:16:38.096Z,9480
2017-05-08T15:17:52.253Z,9116
2017-05-08T15:19:07.896Z,8076
2017-05-08T15:20:22.211Z,5628
2017-05-08T15:21:37.577Z,6100
2017-05-08T15:22:51.665Z,6164
2017-05-08T15:24:05.967Z,7460
2017-05-08T15:25:21.304Z,8220
2017-05-08T15:26:36.659Z,8832
2017-05-08T15:27:52.053Z,9120
2017-05-08T15:29:07.676Z,9300
2017-05-08T15:30:23.137Z,9872
2017-05-08T15:31:38.511Z,9824
2017-05-08T15:32:52.573Z,9792
2017-05-08T15:34:07.070Z,10076
2017-05-08T15:35:19.847Z,10364
2017-05-08T15:36:35.256Z,12008
2017-05-08T15:37:50.619Z,12936
2017-05-08T15:39:06.266Z,13440
2017-05-08T15:40:20.348Z,13276
2017-05-08T15:41:35.952Z,11416
2017-05-08T15:42:51.353Z,9856
2017-05-08T15:44:06.808Z,9976
2017-05-08T15:45:22.508Z,12712
2017-05-08T15:46:36.604Z,11888
2017-05-08T15:47:51.946Z,9972
2017-05-08T15:49:06.144Z,10032
2017-05-08T15:50:22.080Z,6832
2017-05-08T15:51:37.430Z,11084
2017-05-08T15:52:51.486Z,11380
2017-05-08T15:54:04.139Z,9116
2017-05-08T15:55:17.066Z,8680
2017-05-08T15:56:31.033Z,11164
2017-05-08T15:57:45.136Z,12232
2017-05-08T15:59:00.492Z,10684
2017-05-08T16:00:14.827Z,8420
2017-05-08T16:01:29.024Z,7224
2017-05-08T16:02:44.658Z,7292
2017-05-08T16:03:58.738Z,7400
2017-05-08T16:05:12.800Z,7332
2017-05-08T16:06:28.657Z,7644
2017-05-08T16:07:44.240Z,7840
2017-05-08T16:08:59.630Z,7740
2017-05-08T16:10:13.731Z,7396
2017-05-08T16:11:28.095Z,7176
2017-05-08T16:12:43.533Z,6948
2017-05-08T16:13:58.936Z,6376
2017-05-08T16:15:14.281Z,5992
2017-05-08T16:16:29.928Z,5820
2017-05-08T16:17:45.284Z,5948
2017-05-08T16:19:00.658Z,6036
2017-05-08T16:20:16.270Z,6176
2017-05-08T16:21:31.878Z,6464
2017-05-08T16:22:45.891Z,6472
2017-05-08T16:23:59.948Z,6576
2017-05-08T16:25:13.624Z,6520
2017-05-08T16:26:29.237Z,6608
2017-05-08T16:27:44.590Z,6636
2017-05-08T16:28:59.936Z,6424
2017-05-08T16:30:15.287Z,6676
2017-05-08T16:31:30.936Z,5480
2017-05-08T16:32:46.511Z,5664
2017-05-08T16:34:01.892Z,5464
2017-05-08T16:35:17.267Z,6412
2017-05-08T16:36:32.858Z,5868
2017-05-08T16:37:48.231Z,5372
2017-05-08T16:39:04.072Z,4844
2017-05-08T16:40:19.744Z,4952
2017-05-08T16:41:35.365Z,6164
2017-05-08T16:42:50.744Z,6864
2017-05-08T16:44:06.140Z,6504
2017-05-08T16:45:21.536Z,6944